Time;durP1;ratioP1;P1;durP2;ratioP2;P2;SDS_P1;SDS_P2;PMS_P1;PMS_P2;Temp;Humidity;BMP_temperature;BMP_pressure;BME280_temperature;BME280_humidity;BME280_pressure;Samples;Min_cycle;Max_cycle;Signal;HPM_P1;HPM_P2
2024/01/08 00:02:21;;;;;;;4.73;2.43;;;;;;;;;;5073407;28;20303;-85
2024/01/08 00:04:48;;;;;;;2.30;2.07;;;;;;;;;;5077954;28;20241;-87
2024/01/08 00:07:16;;;;;;;5.70;1.57;;;;;;;;;;5074734;28;20228;-87
2024/01/08 00:09:45;;;;;;;1.80;1.70;;;;;;;;;;5074836;28;20218;-86
2024/01/08 00:12:13;;;;;;;1.37;1.37;;;;;;;;;;5075144;28;20206;-87
2024/01/08 00:14:41;;;;;;;1.43;1.33;;;;;;;;;;5074626;28;20285;-86
2024/01/08 00:17:10;;;;;;;2.87;1.37;;;;;;;;;;5073322;28;20309;-86
2024/01/08 00:19:38;;;;;;;1.53;1.50;;;;;;;;;;5073156;28;20621;-86
2024/01/08 00:22:05;;;;;;;4.00;1.70;;;;;;;;;;5077593;28;20223;-87
2024/01/08 00:24:33;;;;;;;3.57;1.70;;;;;;;;;;5083533;28;20621;-87
2024/01/08 00:27:02;;;;;;;1.57;1.07;;;;;;;;;;5080971;28;20307;-86
2024/01/08 00:29:31;;;;;;;2.27;1.23;;;;;;;;;;5075552;28;20543;-86
2024/01/08 00:31:58;;;;;;;1.03;1.03;;;;;;;;;;5073396;28;20297;-86
2024/01/08 00:34:27;;;;;;;1.40;1.30;;;;;;;;;;5074410;28;20226;-87
2024/01/08 00:36:57;;;;;;;1.00;1.00;;;;;;;;;;5073323;28;20271;-87
2024/01/08 00:39:25;;;;;;;1.77;1.67;;;;;;;;;;5072971;28;20234;-87
2024/01/08 00:41:52;;;;;;;1.30;0.87;;;;;;;;;;5074951;28;20685;-85
2024/01/08 00:44:21;;;;;;;3.00;1.03;;;;;;;;;;5075460;28;20566;-87
2024/01/08 00:46:48;;;;;;;3.50;1.47;;;;;;;;;;5074107;28;20265;-86
2024/01/08 00:49:16;;;;;;;1.57;1.47;;;;;;;;;;5073324;28;20194;-87
2024/01/08 00:51:47;;;;;;;1.03;1.03;;;;;;;;;;5075278;28;20287;-86
2024/01/08 00:54:14;;;;;;;2.77;1.20;;;;;;;;;;5076886;28;20206;-85
2024/01/08 00:56:41;;;;;;;1.67;1.37;;;;;;;;;;5075820;28;20252;-87
2024/01/08 00:59:09;;;;;;;1.53;1.53;;;;;;;;;;5075325;28;20655;-86
2024/01/08 01:01:38;;;;;;;1.50;1.40;;;;;;;;;;5073833;28;20569;-87
2024/01/08 01:04:06;;;;;;;1.50;1.40;;;;;;;;;;5074745;28;20222;-86
2024/01/08 01:06:33;;;;;;;2.57;2.37;;;;;;;;;;5074752;28;20183;-86
2024/01/08 01:09:00;;;;;;;4.93;2.20;;;;;;;;;;5072808;28;20233;-86
2024/01/08 01:11:28;;;;;;;9.73;1.80;;;;;;;;;;5073380;28;20203;-86
2024/01/08 01:13:56;;;;;;;2.07;1.63;;;;;;;;;;5073342;28;20202;-89
2024/01/08 01:16:26;;;;;;;3.37;2.17;;;;;;;;;;5072984;28;20194;-86
2024/01/08 01:18:55;;;;;;;1.53;1.53;;;;;;;;;;5073252;28;20238;-86
2024/01/08 01:21:23;;;;;;;1.47;1.37;;;;;;;;;;5072830;28;20592;-86
2024/01/08 01:23:52;;;;;;;1.50;1.40;;;;;;;;;;5075528;28;20679;-86
2024/01/08 01:26:21;;;;;;;1.47;1.37;;;;;;;;;;5074524;28;20203;-86
2024/01/08 01:28:48;;;;;;;1.33;1.23;;;;;;;;;;5073771;28;20202;-86
2024/01/08 01:31:16;;;;;;;1.60;1.20;;;;;;;;;;5074552;28;20203;-87
2024/01/08 01:33:44;;;;;;;1.87;1.23;;;;;;;;;;5075279;28;20600;-85
2024/01/08 01:36:13;;;;;;;2.43;2.00;;;;;;;;;;5085234;28;20229;-85
2024/01/08 01:38:40;;;;;;;1.17;1.17;;;;;;;;;;5085360;28;20194;-85
2024/01/08 01:41:07;;;;;;;2.10;1.53;;;;;;;;;;5090519;28;20187;-85
2024/01/08 01:43:35;;;;;;;1.20;1.17;;;;;;;;;;5095033;28;20202;-86
2024/01/08 01:46:05;;;;;;;1.50;1.40;;;;;;;;;;5091642;28;20218;-86
2024/01/08 01:48:32;;;;;;;1.83;1.73;;;;;;;;;;5104498;28;20473;-86
2024/01/08 01:51:02;;;;;;;2.73;2.03;;;;;;;;;;5105349;28;20270;-86
2024/01/08 01:53:31;;;;;;;1.70;1.57;;;;;;;;;;5097234;28;20248;-86
2024/01/08 01:55:58;;;;;;;1.67;1.50;;;;;;;;;;5101317;28;20720;-86
2024/01/08 01:58:25;;;;;;;3.87;2.20;;;;;;;;;;5094122;28;20657;-87
2024/01/08 02:00:54;;;;;;;1.97;1.83;;;;;;;;;;5095429;28;20229;-86
2024/01/08 02:03:23;;;;;;;3.40;2.57;;;;;;;;;;5094173;28;20205;-87
2024/01/08 02:05:51;;;;;;;4.87;2.77;;;;;;;;;;5093976;28;20389;-86
2024/01/08 02:08:18;;;;;;;2.23;1.97;;;;;;;;;;5095696;28;20308;-88
2024/01/08 02:10:48;;;;;;;2.83;2.10;;;;;;;;;;5093040;28;20216;-86
2024/01/08 02:13:15;;;;;;;2.77;2.57;;;;;;;;;;5092796;28;20190;-86
2024/01/08 02:15:42;;;;;;;2.73;2.53;;;;;;;;;;5096531;28;20186;-87
2024/01/08 02:18:10;;;;;;;2.47;2.37;;;;;;;;;;5094590;28;20221;-86
2024/01/08 02:20:37;;;;;;;4.67;2.37;;;;;;;;;;5095700;28;20316;-87
2024/01/08 02:23:07;;;;;;;1.80;1.70;;;;;;;;;;5100250;28;20198;-87
2024/01/08 02:25:34;;;;;;;2.37;1.90;;;;;;;;;;5099975;28;20186;-87
2024/01/08 02:28:02;;;;;;;2.30;1.80;;;;;;;;;;5097890;28;20197;-87
2024/01/08 02:30:29;;;;;;;2.20;1.87;;;;;;;;;;5097182;28;20190;-86
2024/01/08 02:32:57;;;;;;;2.00;1.90;;;;;;;;;;5097269;28;20189;-86
2024/01/08 02:35:24;;;;;;;3.80;1.70;;;;;;;;;;5097017;28;20198;-88
2024/01/08 02:37:51;;;;;;;1.37;0.97;;;;;;;;;;5097161;28;20201;-88
2024/01/08 02:40:20;;;;;;;2.20;1.47;;;;;;;;;;5096480;28;20229;-88
2024/01/08 02:42:48;;;;;;;1.90;1.40;;;;;;;;;;5106802;28;20232;-87
2024/01/08 02:45:16;;;;;;;2.60;1.07;;;;;;;;;;5103333;28;20194;-87
2024/01/08 02:47:43;;;;;;;1.60;1.50;;;;;;;;;;5108464;28;20726;-87
2024/01/08 02:50:11;;;;;;;2.93;1.67;;;;;;;;;;5117339;28;20203;-87
2024/01/08 02:52:39;;;;;;;1.87;1.60;;;;;;;;;;5116752;28;20432;-87
2024/01/08 02:55:07;;;;;;;1.33;1.33;;;;;;;;;;5116865;28;20200;-87
2024/01/08 02:57:36;;;;;;;1.90;1.53;;;;;;;;;;5116621;28;20189;-87
2024/01/08 03:00:04;;;;;;;1.43;0.93;;;;;;;;;;5115997;28;20233;-86
2024/01/08 03:02:34;;;;;;;1.10;1.10;;;;;;;;;;5117455;28;20575;-86
2024/01/08 03:05:02;;;;;;;1.10;1.10;;;;;;;;;;5118827;28;20207;-87
2024/01/08 03:07:29;;;;;;;1.30;0.90;;;;;;;;;;5130468;28;20260;-88
2024/01/08 03:09:58;;;;;;;5.60;1.50;;;;;;;;;;5117066;28;20197;-87
2024/01/08 03:12:27;;;;;;;2.83;1.17;;;;;;;;;;5116560;28;20197;-87
2024/01/08 03:14:56;;;;;;;1.10;1.00;;;;;;;;;;5117763;28;20208;-86
2024/01/08 03:17:23;;;;;;;1.00;1.00;;;;;;;;;;5115997;28;20189;-87
2024/01/08 03:19:51;;;;;;;2.73;1.03;;;;;;;;;;5116437;28;20304;-87
2024/01/08 03:22:18;;;;;;;1.10;0.90;;;;;;;;;;5116193;28;20189;-86
2024/01/08 03:24:45;;;;;;;1.17;1.10;;;;;;;;;;5116470;28;20220;-86
2024/01/08 03:27:12;;;;;;;3.30;0.97;;;;;;;;;;5117230;28;20213;-87
2024/01/08 03:29:41;;;;;;;1.20;1.13;;;;;;;;;;5116619;28;20726;-87
2024/01/08 03:32:11;;;;;;;1.43;1.17;;;;;;;;;;5115684;28;20225;-88
2024/01/08 03:34:43;;;;;;;1.10;1.07;;;;;;;;;;5116359;28;20193;-86
2024/01/08 03:37:11;;;;;;;0.77;0.77;;;;;;;;;;5115646;28;20193;-86
2024/01/08 03:39:37;;;;;;;0.73;0.73;;;;;;;;;;5115415;28;20707;-87
2024/01/08 03:42:05;;;;;;;0.90;0.90;;;;;;;;;;5116529;28;20277;-87
2024/01/08 03:44:33;;;;;;;0.70;0.70;;;;;;;;;;5115808;28;20637;-86
2024/01/08 03:47:01;;;;;;;1.07;0.90;;;;;;;;;;5115694;28;20714;-87
2024/01/08 03:49:30;;;;;;;0.73;0.73;;;;;;;;;;5116473;28;20221;-87
2024/01/08 03:51:57;;;;;;;1.60;1.40;;;;;;;;;;5116403;28;20641;-88
2024/01/08 03:54:24;;;;;;;1.30;1.30;;;;;;;;;;5115511;28;20683;-88
2024/01/08 03:56:51;;;;;;;0.80;0.80;;;;;;;;;;5116014;28;20246;-88
2024/01/08 03:59:18;;;;;;;0.90;0.90;;;;;;;;;;5114810;28;20650;-87
2024/01/08 04:01:46;;;;;;;0.77;0.77;;;;;;;;;;5114766;28;20672;-88
2024/01/08 04:04:13;;;;;;;1.47;1.37;;;;;;;;;;5114677;28;20192;-87
2024/01/08 04:06:43;;;;;;;1.33;1.23;;;;;;;;;;5115351;28;20671;-87
2024/01/08 04:09:10;;;;;;;1.30;1.20;;;;;;;;;;5115519;28;20701;-87
2024/01/08 04:11:37;;;;;;;1.30;1.27;;;;;;;;;;5116399;28;20190;-86
2024/01/08 04:14:04;;;;;;;1.13;1.13;;;;;;;;;;5115682;28;20193;-86
2024/01/08 04:16:32;;;;;;;0.73;0.73;;;;;;;;;;5115788;28;20205;-86
2024/01/08 04:19:00;;;;;;;2.03;1.77;;;;;;;;;;5098575;28;20205;-86
2024/01/08 04:21:27;;;;;;;1.80;1.70;;;;;;;;;;5115105;28;20292;-87
2024/01/08 04:23:57;;;;;;;2.10;1.70;;;;;;;;;;5115843;28;20193;-86
2024/01/08 04:26:25;;;;;;;2.27;2.17;;;;;;;;;;5126315;28;20230;-88
2024/01/08 04:28:52;;;;;;;1.87;1.77;;;;;;;;;;5117672;28;20292;-87
2024/01/08 04:31:20;;;;;;;5.37;2.70;;;;;;;;;;5129961;27;20186;-86
2024/01/08 04:33:48;;;;;;;2.30;2.10;;;;;;;;;;5136909;27;20185;-86
2024/01/08 04:36:16;;;;;;;2.47;2.30;;;;;;;;;;5122812;28;20213;-86
2024/01/08 04:38:44;;;;;;;2.50;2.30;;;;;;;;;;5124926;28;20201;-86
2024/01/08 04:41:18;;;;;;;2.73;2.53;;;;;;;;;;5114861;28;20251;-88
2024/01/08 04:43:46;;;;;;;3.17;2.63;;;;;;;;;;5115076;28;20202;-87
2024/01/08 04:46:13;;;;;;;2.70;2.50;;;;;;;;;;5115636;28;20554;-87
2024/01/08 04:48:41;;;;;;;8.27;2.90;;;;;;;;;;5115469;28;20668;-86
2024/01/08 04:51:09;;;;;;;3.40;2.30;;;;;;;;;;5115927;28;20181;-86
2024/01/08 04:53:36;;;;;;;2.03;1.93;;;;;;;;;;5114766;28;20255;-85
2024/01/08 04:56:04;;;;;;;3.87;2.13;;;;;;;;;;5126836;28;20562;-87
2024/01/08 04:58:36;;;;;;;2.03;1.90;;;;;;;;;;5114466;28;20201;-87
2024/01/08 05:01:04;;;;;;;1.50;1.40;;;;;;;;;;5113827;28;20229;-88
2024/01/08 05:03:31;;;;;;;2.50;1.97;;;;;;;;;;5113801;28;20197;-87
2024/01/08 05:06:01;;;;;;;1.67;1.63;;;;;;;;;;5115143;28;20201;-87
2024/01/08 05:08:29;;;;;;;2.13;1.83;;;;;;;;;;5115119;28;20252;-88
2024/01/08 05:10:56;;;;;;;1.30;1.13;;;;;;;;;;5115730;28;20240;-87
2024/01/08 05:13:23;;;;;;;1.47;1.40;;;;;;;;;;5115612;28;20220;-88
2024/01/08 05:15:52;;;;;;;0.93;0.93;;;;;;;;;;5115889;28;20220;-87
2024/01/08 05:18:22;;;;;;;1.60;1.50;;;;;;;;;;5121442;28;20222;-85
2024/01/08 05:20:49;;;;;;;1.40;1.30;;;;;;;;;;5130205;28;20205;-88
2024/01/08 05:23:17;;;;;;;1.23;1.23;;;;;;;;;;5131331;28;20201;-88
2024/01/08 05:25:47;;;;;;;2.40;0.93;;;;;;;;;;5118787;28;20197;-86
2024/01/08 05:28:16;;;;;;;1.00;0.90;;;;;;;;;;5120106;28;20272;-88
2024/01/08 05:30:44;;;;;;;2.87;1.20;;;;;;;;;;5129364;28;20646;-86
2024/01/08 05:33:16;;;;;;;1.67;1.37;;;;;;;;;;5120405;27;20200;-88
2024/01/08 05:35:44;;;;;;;1.63;1.53;;;;;;;;;;5123191;28;20254;-88
2024/01/08 05:38:11;;;;;;;0.87;0.87;;;;;;;;;;5119109;28;20773;-86
2024/01/08 05:40:39;;;;;;;1.27;1.27;;;;;;;;;;5095732;28;20228;-87
2024/01/08 05:43:05;;;;;;;1.03;1.00;;;;;;;;;;5094505;28;20255;-86
2024/01/08 05:45:32;;;;;;;1.63;1.60;;;;;;;;;;5102105;28;20232;-87
2024/01/08 05:48:00;;;;;;;1.60;1.13;;;;;;;;;;5106955;28;20752;-88
2024/01/08 05:50:30;;;;;;;3.03;1.50;;;;;;;;;;5084599;28;20206;-87
2024/01/08 05:52:57;;;;;;;0.77;0.77;;;;;;;;;;5095687;28;20206;-87
2024/01/08 05:55:25;;;;;;;1.23;1.20;;;;;;;;;;5092600;28;20605;-87
2024/01/08 05:57:52;;;;;;;4.00;1.93;;;;;;;;;;5092425;28;20662;-87
2024/01/08 06:00:23;;;;;;;1.30;1.20;;;;;;;;;;5091587;28;20298;-87
2024/01/08 06:02:50;;;;;;;1.23;1.23;;;;;;;;;;5103230;28;20205;-88
2024/01/08 06:05:18;;;;;;;1.30;1.17;;;;;;;;;;5093919;28;20682;-87
2024/01/08 06:07:47;;;;;;;1.03;1.03;;;;;;;;;;5093078;28;20198;-87
2024/01/08 06:10:17;;;;;;;1.63;1.37;;;;;;;;;;5094756;28;20245;-87
2024/01/08 06:12:44;;;;;;;2.33;1.50;;;;;;;;;;5093469;28;20197;-87
2024/01/08 06:15:12;;;;;;;2.27;1.60;;;;;;;;;;5092957;28;20647;-87
2024/01/08 06:17:40;;;;;;;1.70;1.40;;;;;;;;;;5093021;28;20197;-88
2024/01/08 06:20:09;;;;;;;1.87;1.60;;;;;;;;;;5094096;28;20228;-87
2024/01/08 06:22:36;;;;;;;1.37;1.27;;;;;;;;;;5094145;28;20194;-87
2024/01/08 06:25:05;;;;;;;1.10;0.90;;;;;;;;;;5092789;28;20221;-87
2024/01/08 06:27:32;;;;;;;1.23;1.23;;;;;;;;;;5091355;28;20212;-86
2024/01/08 06:29:59;;;;;;;1.30;1.20;;;;;;;;;;5091926;28;20224;-86
2024/01/08 06:32:26;;;;;;;1.03;1.00;;;;;;;;;;5092419;28;20305;-86
2024/01/08 06:34:54;;;;;;;1.90;1.43;;;;;;;;;;5092708;28;20723;-86
2024/01/08 06:37:21;;;;;;;1.17;1.17;;;;;;;;;;5093840;28;20293;-86
2024/01/08 06:39:49;;;;;;;1.20;1.20;;;;;;;;;;5103268;28;20278;-86
2024/01/08 06:42:18;;;;;;;1.43;1.33;;;;;;;;;;5102310;28;20217;-87
2024/01/08 06:44:46;;;;;;;1.13;1.13;;;;;;;;;;5104409;28;20270;-86
2024/01/08 06:47:15;;;;;;;1.93;1.17;;;;;;;;;;5114266;28;20218;-87
2024/01/08 06:49:43;;;;;;;2.73;1.50;;;;;;;;;;5099029;28;20304;-87
2024/01/08 06:52:11;;;;;;;1.63;1.53;;;;;;;;;;5095329;28;20213;-86
2024/01/08 06:54:39;;;;;;;1.80;1.73;;;;;;;;;;5093039;28;20251;-86
2024/01/08 06:57:06;;;;;;;1.97;1.83;;;;;;;;;;5093715;28;20677;-87
2024/01/08 06:59:35;;;;;;;2.50;2.33;;;;;;;;;;5099819;28;20275;-86
2024/01/08 07:02:02;;;;;;;2.40;2.17;;;;;;;;;;5093420;28;20234;-86
2024/01/08 07:04:30;;;;;;;1.53;1.53;;;;;;;;;;5093235;28;20198;-86
2024/01/08 07:06:57;;;;;;;2.67;2.27;;;;;;;;;;5101690;28;20194;-86
2024/01/08 07:09:24;;;;;;;2.50;2.30;;;;;;;;;;5100130;28;20684;-86
2024/01/08 07:11:51;;;;;;;2.03;1.83;;;;;;;;;;5095836;28;20193;-85
2024/01/08 07:14:19;;;;;;;1.17;1.17;;;;;;;;;;5115173;28;20207;-85
2024/01/08 07:16:48;;;;;;;1.40;1.40;;;;;;;;;;5117888;28;20254;-85
2024/01/08 07:19:16;;;;;;;3.17;1.73;;;;;;;;;;5117127;28;20194;-86
2024/01/08 07:21:44;;;;;;;4.63;1.67;;;;;;;;;;5115193;28;20233;-85
2024/01/08 07:24:12;;;;;;;3.77;2.00;;;;;;;;;;5116995;28;20322;-85
2024/01/08 07:26:40;;;;;;;1.23;1.23;;;;;;;;;;5116982;28;20246;-86
2024/01/08 07:29:07;;;;;;;0.87;0.87;;;;;;;;;;5114626;28;20260;-85
2024/01/08 07:31:38;;;;;;;1.33;1.23;;;;;;;;;;5115925;28;20343;-86
2024/01/08 07:34:19;;;;;;;1.27;1.17;;;;;;;;;;5115499;28;20633;-86
2024/01/08 07:36:46;;;;;;;1.30;1.20;;;;;;;;;;5114914;28;20555;-86
2024/01/08 07:39:16;;;;;;;0.90;0.90;;;;;;;;;;5116392;28;20217;-86
2024/01/08 07:41:47;;;;;;;2.60;0.93;;;;;;;;;;5115615;28;20228;-86
2024/01/08 07:44:15;;;;;;;1.40;1.40;;;;;;;;;;5115697;28;20456;-86
2024/01/08 07:46:43;;;;;;;1.93;1.30;;;;;;;;;;5104509;28;20230;-86
2024/01/08 07:49:16;;;;;;;0.93;0.93;;;;;;;;;;5076528;28;20214;-87
2024/01/08 07:51:49;;;;;;;3.07;1.23;;;;;;;;;;5076870;28;20236;-86
2024/01/08 07:54:18;;;;;;;1.27;1.27;;;;;;;;;;5078485;28;20198;-86
2024/01/08 07:56:47;;;;;;;1.73;1.67;;;;;;;;;;5079593;28;20294;-88
2024/01/08 07:59:14;;;;;;;2.00;1.77;;;;;;;;;;5077589;28;20183;-87
2024/01/08 08:01:41;;;;;;;1.43;1.20;;;;;;;;;;5080432;28;20229;-86
2024/01/08 08:04:10;;;;;;;1.83;1.67;;;;;;;;;;5081308;28;20197;-88
2024/01/08 08:06:42;;;;;;;2.43;1.03;;;;;;;;;;5080977;28;20222;-89
2024/01/08 08:09:10;;;;;;;2.40;1.80;;;;;;;;;;5082206;28;20480;-86
2024/01/08 08:11:42;;;;;;;1.50;1.50;;;;;;;;;;5089015;28;20310;-86
2024/01/08 08:14:13;;;;;;;2.63;1.93;;;;;;;;;;5091359;28;20198;-86
2024/01/08 08:16:45;;;;;;;2.70;1.83;;;;;;;;;;5088769;28;20218;-89
2024/01/08 08:19:13;;;;;;;3.43;2.00;;;;;;;;;;5085940;28;20246;-88
2024/01/08 08:21:46;;;;;;;1.97;1.87;;;;;;;;;;5074219;28;20281;-88
2024/01/08 08:24:13;;;;;;;4.23;1.90;;;;;;;;;;5083686;28;20227;-88
2024/01/08 08:26:41;;;;;;;5.27;2.60;;;;;;;;;;5085666;28;20233;-86
2024/01/08 08:29:10;;;;;;;4.87;2.77;;;;;;;;;;5072405;28;20226;-87
2024/01/08 08:31:41;;;;;;;0.97;0.97;;;;;;;;;;5063436;28;20238;-88
2024/01/08 08:34:09;;;;;;;1.27;1.07;;;;;;;;;;5059057;28;20225;-89
2024/01/08 08:36:39;;;;;;;3.80;3.47;;;;;;;;;;5058341;28;20215;-91
2024/01/08 08:39:09;;;;;;;3.00;2.63;;;;;;;;;;5063345;28;20227;-86
2024/01/08 08:41:37;;;;;;;3.93;2.40;;;;;;;;;;5057681;28;20274;-87
2024/01/08 08:44:06;;;;;;;3.63;1.10;;;;;;;;;;5060028;28;20223;-87
2024/01/08 08:46:34;;;;;;;1.87;1.77;;;;;;;;;;5066421;28;20219;-86
2024/01/08 08:49:02;;;;;;;1.73;1.20;;;;;;;;;;5088606;28;20300;-88
2024/01/08 08:51:30;;;;;;;5.67;1.30;;;;;;;;;;5089719;28;20222;-87
2024/01/08 08:54:01;;;;;;;1.33;1.30;;;;;;;;;;5085693;28;20249;-87
2024/01/08 08:56:30;;;;;;;1.23;1.23;;;;;;;;;;5085049;28;20287;-85
2024/01/08 08:58:59;;;;;;;1.23;1.13;;;;;;;;;;5087186;28;20230;-86
2024/01/08 09:01:28;;;;;;;1.30;1.20;;;;;;;;;;5096822;28;20217;-86
2024/01/08 09:03:55;;;;;;;1.80;1.70;;;;;;;;;;5106787;28;20237;-87
2024/01/08 09:06:33;;;;;;;1.93;1.83;;;;;;;;;;5107667;28;20285;-86
2024/01/08 09:09:00;;;;;;;3.13;2.10;;;;;;;;;;5108316;28;20229;-87
2024/01/08 09:11:28;;;;;;;3.07;1.87;;;;;;;;;;5105909;28;20666;-87
2024/01/08 09:13:57;;;;;;;4.00;1.63;;;;;;;;;;5105124;28;20229;-87
2024/01/08 09:16:26;;;;;;;2.33;1.77;;;;;;;;;;5103748;28;20218;-85
2024/01/08 09:18:55;;;;;;;1.80;1.70;;;;;;;;;;5105021;28;20770;-87
2024/01/08 09:21:23;;;;;;;1.53;1.43;;;;;;;;;;5110469;28;20252;-86
2024/01/08 09:23:51;;;;;;;5.23;2.60;;;;;;;;;;5111748;28;20226;-86
2024/01/08 09:26:18;;;;;;;2.27;2.07;;;;;;;;;;5110879;28;20275;-86
2024/01/08 09:28:47;;;;;;;2.67;1.93;;;;;;;;;;5109278;28;20214;-86
2024/01/08 09:31:16;;;;;;;1.47;1.30;;;;;;;;;;5110462;28;20245;-87
2024/01/08 09:33:43;;;;;;;2.30;2.10;;;;;;;;;;5110341;28;20248;-86
2024/01/08 09:36:11;;;;;;;4.17;3.10;;;;;;;;;;5106385;28;20217;-86
2024/01/08 09:38:40;;;;;;;4.30;2.77;;;;;;;;;;5102874;28;20218;-85
2024/01/08 09:41:11;;;;;;;1.90;1.47;;;;;;;;;;5104411;28;20288;-86
2024/01/08 09:43:39;;;;;;;2.57;1.30;;;;;;;;;;5112383;28;20221;-87
2024/01/08 09:46:11;;;;;;;1.63;1.53;;;;;;;;;;5113310;28;20229;-86
2024/01/08 09:48:41;;;;;;;2.50;1.70;;;;;;;;;;5093449;28;20226;-86
2024/01/08 09:51:11;;;;;;;3.03;2.03;;;;;;;;;;5088541;28;20223;-85
2024/01/08 09:53:38;;;;;;;1.67;1.57;;;;;;;;;;5087540;28;20218;-87
2024/01/08 09:56:07;;;;;;;2.63;2.53;;;;;;;;;;5080191;28;20691;-87
2024/01/08 09:58:34;;;;;;;2.10;1.90;;;;;;;;;;5087422;28;20221;-85
2024/01/08 10:01:03;;;;;;;2.30;2.10;;;;;;;;;;5089107;28;20223;-86
2024/01/08 10:03:35;;;;;;;4.10;2.23;;;;;;;;;;5090544;28;20240;-88
2024/01/08 10:06:09;;;;;;;12.07;2.20;;;;;;;;;;5089440;28;20257;-85
2024/01/08 10:08:36;;;;;;;2.27;1.80;;;;;;;;;;5080403;28;20220;-85
2024/01/08 10:11:03;;;;;;;2.90;1.80;;;;;;;;;;5083001;28;20248;-86
2024/01/08 10:13:31;;;;;;;1.93;1.83;;;;;;;;;;5085710;28;20269;-85
2024/01/08 10:16:01;;;;;;;3.73;2.77;;;;;;;;;;5084815;28;20681;-86
2024/01/08 10:18:29;;;;;;;1.93;1.83;;;;;;;;;;5078531;28;20397;-87
2024/01/08 10:21:17;;;;;;;1.17;1.07;;;;;;;;;;5080875;28;20228;-86
2024/01/08 10:23:46;;;;;;;1.10;1.10;;;;;;;;;;5087699;28;20248;-86
2024/01/08 10:26:16;;;;;;;2.50;1.80;;;;;;;;;;5086281;28;20230;-86
2024/01/08 10:28:43;;;;;;;4.57;2.20;;;;;;;;;;5079994;28;20221;-87
2024/01/08 10:31:11;;;;;;;1.60;1.50;;;;;;;;;;5076247;28;20723;-85
2024/01/08 10:33:38;;;;;;;3.27;2.27;;;;;;;;;;5072861;28;20218;-87
2024/01/08 10:36:07;;;;;;;2.13;1.20;;;;;;;;;;5072959;28;20317;-86
2024/01/08 10:38:34;;;;;;;1.27;1.27;;;;;;;;;;5071600;28;20238;-87
2024/01/08 10:41:14;;;;;;;1.40;1.30;;;;;;;;;;5072990;28;20214;-85
2024/01/08 10:43:42;;;;;;;1.70;1.60;;;;;;;;;;5076620;28;20222;-88
2024/01/08 10:46:12;;;;;;;1.33;0.90;;;;;;;;;;5075088;28;20250;-86
2024/01/08 10:48:41;;;;;;;2.60;0.87;;;;;;;;;;5074343;28;20250;-88
2024/01/08 10:51:17;;;;;;;1.30;1.07;;;;;;;;;;5077900;28;20230;-87
2024/01/08 10:53:45;;;;;;;1.20;1.10;;;;;;;;;;5077132;28;20228;-87
2024/01/08 10:56:15;;;;;;;1.80;1.70;;;;;;;;;;5077426;28;20264;-86
2024/01/08 10:58:49;;;;;;;1.50;0.97;;;;;;;;;;5088875;28;20226;-85
2024/01/08 11:01:17;;;;;;;4.10;2.37;;;;;;;;;;5090788;28;20230;-87
2024/01/08 11:03:44;;;;;;;2.27;2.07;;;;;;;;;;5094743;28;20234;-88
2024/01/08 11:06:13;;;;;;;2.80;2.53;;;;;;;;;;5093835;28;20275;-88
2024/01/08 11:08:42;;;;;;;2.27;2.10;;;;;;;;;;5088706;28;20750;-85
2024/01/08 11:11:11;;;;;;;2.13;1.93;;;;;;;;;;5078382;28;20253;-87
2024/01/08 11:13:42;;;;;;;4.33;1.50;;;;;;;;;;5079483;28;20273;-88
2024/01/08 11:16:11;;;;;;;2.40;1.77;;;;;;;;;;5077048;28;20366;-86
2024/01/08 11:18:39;;;;;;;1.33;1.33;;;;;;;;;;5077993;28;20219;-87
2024/01/08 11:21:07;;;;;;;1.60;1.50;;;;;;;;;;5075999;28;20763;-86
2024/01/08 11:23:37;;;;;;;1.53;1.40;;;;;;;;;;5079611;28;20242;-86
2024/01/08 11:26:05;;;;;;;1.53;1.50;;;;;;;;;;5079805;28;20210;-86
2024/01/08 11:28:34;;;;;;;2.17;1.67;;;;;;;;;;5076998;28;20226;-87
2024/01/08 11:31:28;;;;;;;2.90;2.60;;;;;;;;;;5064644;28;20278;-87
2024/01/08 11:34:10;;;;;;;3.20;1.97;;;;;;;;;;5075329;28;20223;-87
2024/01/08 11:36:45;;;;;;;2.10;1.73;;;;;;;;;;5074998;28;20222;-87
2024/01/08 11:39:17;;;;;;;2.43;2.03;;;;;;;;;;5064158;28;20287;-86
2024/01/08 11:41:51;;;;;;;5.93;2.27;;;;;;;;;;5075331;28;20582;-87
2024/01/08 11:44:19;;;;;;;2.40;2.07;;;;;;;;;;5076768;28;20226;-86
2024/01/08 11:46:48;;;;;;;1.40;1.40;;;;;;;;;;5080360;28;20268;-87
2024/01/08 11:49:16;;;;;;;2.57;1.93;;;;;;;;;;5099767;28;20222;-86
2024/01/08 11:51:46;;;;;;;1.97;1.70;;;;;;;;;;5098556;28;20291;-89
2024/01/08 11:54:16;;;;;;;1.87;1.77;;;;;;;;;;5096669;28;20301;-88
2024/01/08 11:56:45;;;;;;;2.23;2.13;;;;;;;;;;5095769;28;20261;-87
2024/01/08 11:59:12;;;;;;;1.93;1.83;;;;;;;;;;5094355;28;20226;-87
2024/01/08 12:01:40;;;;;;;3.03;2.07;;;;;;;;;;5095672;28;20229;-86
2024/01/08 12:04:09;;;;;;;3.17;2.83;;;;;;;;;;5105189;28;20648;-86
2024/01/08 12:06:38;;;;;;;2.50;2.30;;;;;;;;;;5113865;28;20232;-87
2024/01/08 12:09:06;;;;;;;2.77;2.43;;;;;;;;;;5101305;28;20225;-85
2024/01/08 12:11:35;;;;;;;12.37;3.10;;;;;;;;;;5112165;28;20222;-86
2024/01/08 12:14:03;;;;;;;2.57;2.37;;;;;;;;;;5114131;28;20243;-85
2024/01/08 12:16:31;;;;;;;2.17;2.07;;;;;;;;;;5113030;28;20220;-86
2024/01/08 12:19:01;;;;;;;1.10;1.10;;;;;;;;;;5112501;28;20468;-86
2024/01/08 12:21:31;;;;;;;1.83;1.37;;;;;;;;;;5100811;28;20237;-86
2024/01/08 12:23:57;;;;;;;2.23;2.03;;;;;;;;;;5097990;28;20324;-86
2024/01/08 12:26:27;;;;;;;2.17;2.00;;;;;;;;;;5094514;28;20247;-87
2024/01/08 12:28:54;;;;;;;2.07;1.97;;;;;;;;;;5093565;28;20291;-86
2024/01/08 12:31:22;;;;;;;1.87;1.77;;;;;;;;;;5095114;28;20237;-87
2024/01/08 12:33:52;;;;;;;1.57;1.47;;;;;;;;;;5102108;28;20237;-86
2024/01/08 12:36:22;;;;;;;1.87;1.77;;;;;;;;;;5102281;28;20278;-86
2024/01/08 12:38:59;;;;;;;1.70;1.60;;;;;;;;;;5102673;28;20240;-86
2024/01/08 12:41:26;;;;;;;2.30;2.07;;;;;;;;;;5095308;28;20233;-87
2024/01/08 12:43:55;;;;;;;1.37;1.37;;;;;;;;;;5096106;28;20308;-87
2024/01/08 12:46:22;;;;;;;2.30;1.73;;;;;;;;;;5095212;28;20278;-87
2024/01/08 12:48:52;;;;;;;2.53;2.27;;;;;;;;;;5097012;28;20229;-87
2024/01/08 12:51:19;;;;;;;1.97;1.77;;;;;;;;;;5095020;28;20218;-87
2024/01/08 12:53:46;;;;;;;2.50;2.27;;;;;;;;;;5092530;28;20225;-86
2024/01/08 12:56:16;;;;;;;4.50;2.80;;;;;;;;;;5096517;28;20226;-85
2024/01/08 12:58:44;;;;;;;7.37;4.27;;;;;;;;;;5097548;28;20226;-86
2024/01/08 13:01:11;;;;;;;7.43;4.53;;;;;;;;;;5081394;28;20616;-86
2024/01/08 13:03:39;;;;;;;6.93;4.07;;;;;;;;;;5072349;28;20329;-87
2024/01/08 13:06:07;;;;;;;3.87;2.50;;;;;;;;;;5072318;28;20562;-87
2024/01/08 13:08:35;;;;;;;5.10;2.87;;;;;;;;;;5072079;28;20314;-87
2024/01/08 13:11:03;;;;;;;5.20;3.43;;;;;;;;;;5075377;28;20230;-87
2024/01/08 13:13:32;;;;;;;1.87;1.60;;;;;;;;;;5084205;28;20403;-87
2024/01/08 13:15:59;;;;;;;3.27;2.40;;;;;;;;;;5094244;28;20249;-87
2024/01/08 13:18:27;;;;;;;6.30;3.53;;;;;;;;;;5094386;28;20230;-86
2024/01/08 13:20:56;;;;;;;3.07;2.73;;;;;;;;;;5094460;28;20222;-86
2024/01/08 13:23:23;;;;;;;4.67;2.20;;;;;;;;;;5093877;28;20242;-86
2024/01/08 13:25:52;;;;;;;2.37;2.20;;;;;;;;;;5094249;28;20221;-87
2024/01/08 13:28:19;;;;;;;6.80;3.73;;;;;;;;;;5092643;28;20288;-86
2024/01/08 13:30:50;;;;;;;2.57;2.37;;;;;;;;;;5096891;28;20257;-87
2024/01/08 13:33:21;;;;;;;5.27;2.57;;;;;;;;;;5098017;28;20214;-86
2024/01/08 13:35:50;;;;;;;1.00;0.90;;;;;;;;;;5099723;28;20235;-86
2024/01/08 13:38:40;;;;;;;1.70;1.43;;;;;;;;;;5091912;28;20233;-88
2024/01/08 13:41:11;;;;;;;6.47;3.13;;;;;;;;;;5011670;28;20227;-87
2024/01/08 13:43:54;;;;;;;4.87;3.60;;;;;;;;;;5088341;28;20297;-86
2024/01/08 13:46:35;;;;;;;6.07;4.20;;;;;;;;;;5093637;28;20232;-89
2024/01/08 13:49:12;;;;;;;3.30;2.83;;;;;;;;;;5090463;28;20226;-86
2024/01/08 13:51:42;;;;;;;4.87;2.90;;;;;;;;;;5094826;28;20229;-85
2024/01/08 13:54:24;;;;;;;2.93;2.63;;;;;;;;;;5089720;28;20332;-87
2024/01/08 13:56:54;;;;;;;3.63;3.33;;;;;;;;;;5094466;28;20225;-88
2024/01/08 13:59:23;;;;;;;5.03;2.83;;;;;;;;;;5093171;28;20255;-88
2024/01/08 14:01:54;;;;;;;5.33;3.20;;;;;;;;;;5094568;28;20228;-87
2024/01/08 14:04:23;;;;;;;6.53;3.30;;;;;;;;;;5096692;28;20237;-87
2024/01/08 14:06:52;;;;;;;2.17;2.03;;;;;;;;;;5094681;28;20748;-87
2024/01/08 14:09:20;;;;;;;5.17;2.57;;;;;;;;;;5093608;28;20226;-84
2024/01/08 14:11:49;;;;;;;1.90;1.80;;;;;;;;;;5094862;28;20225;-86
2024/01/08 14:14:26;;;;;;;8.13;3.33;;;;;;;;;;5094667;28;20287;-87
2024/01/08 14:16:56;;;;;;;4.47;3.70;;;;;;;;;;5112378;28;20209;-86
2024/01/08 14:19:28;;;;;;;5.20;4.50;;;;;;;;;;5114533;28;20223;-87
2024/01/08 14:21:58;;;;;;;3.30;2.50;;;;;;;;;;5116142;28;20212;-86
2024/01/08 14:24:25;;;;;;;3.63;2.77;;;;;;;;;;5102209;28;20701;-86
2024/01/08 14:26:54;;;;;;;3.73;3.33;;;;;;;;;;5105358;28;20218;-86
2024/01/08 14:29:21;;;;;;;10.90;4.23;;;;;;;;;;5100920;28;20218;-87
2024/01/08 14:32:40;;;;;;;4.57;4.17;;;;;;;;;;5128881;27;20971;-87
2024/01/08 14:35:09;;;;;;;5.90;2.57;;;;;;;;;;5094824;27;20305;-86
2024/01/08 14:37:35;;;;;;;1.93;1.83;;;;;;;;;;5098677;28;20232;-86
2024/01/08 14:40:02;;;;;;;3.60;2.67;;;;;;;;;;5094535;27;20651;-85
2024/01/08 14:42:30;;;;;;;2.63;2.40;;;;;;;;;;5091737;28;20257;-87
2024/01/08 14:44:57;;;;;;;4.13;3.27;;;;;;;;;;5088525;27;20237;-87
2024/01/08 14:47:28;;;;;;;4.70;3.77;;;;;;;;;;5093198;28;20225;-87
2024/01/08 14:49:57;;;;;;;8.57;4.53;;;;;;;;;;5090427;27;20225;-86
2024/01/08 14:52:25;;;;;;;4.73;3.37;;;;;;;;;;5091245;28;20922;-86
2024/01/08 14:54:53;;;;;;;4.90;2.63;;;;;;;;;;5092266;27;20224;-86